createdAt,value
2022-11-19T00:00:59.401Z,94.27
2022-11-19T00:01:59.542Z,94.48
2022-11-19T00:02:59.391Z,94.69
2022-11-19T00:03:59.384Z,95.43
2022-11-19T00:04:59.356Z,95.53
2022-11-19T00:05:59.344Z,95.22
2022-11-19T00:06:59.406Z,94.90
2022-11-19T00:07:59.325Z,95.11
2022-11-19T00:08:59.344Z,95.11
2022-11-19T00:09:59.302Z,95.32
2022-11-19T00:10:59.331Z,95.53
2022-11-19T00:11:59.277Z,95.01
2022-11-19T00:12:59.284Z,94.38
2022-11-19T00:13:59.251Z,95.53
2022-11-19T00:14:59.276Z,95.11
2022-11-19T00:15:59.285Z,95.01
2022-11-19T00:16:59.245Z,94.80
2022-11-19T00:17:59.263Z,95.01
2022-11-19T00:19:01.962Z,95.53
2022-11-19T00:19:59.186Z,95.32
2022-11-19T00:20:59.207Z,95.75
2022-11-19T00:21:59.185Z,95.95
2022-11-19T00:22:59.163Z,96.06
2022-11-19T00:23:59.151Z,96.02
2022-11-19T00:24:59.157Z,96.23
2022-11-19T00:25:59.122Z,96.02
2022-11-19T00:26:59.142Z,95.39
2022-11-19T00:27:59.117Z,95.32
2022-11-19T00:28:59.101Z,95.64
2022-11-19T00:29:59.081Z,95.22
2022-11-19T00:30:59.073Z,95.11
2022-11-19T00:31:59.088Z,95.11
2022-11-19T00:32:59.047Z,95.01
2022-11-19T00:33:59.051Z,95.22
2022-11-19T00:34:59.053Z,95.11
2022-11-19T00:35:59.049Z,95.53
2022-11-19T00:36:59.038Z,94.80
2022-11-19T00:37:58.993Z,95.11
2022-11-19T00:38:58.982Z,95.32
2022-11-19T00:39:58.972Z,95.22
2022-11-19T00:40:58.963Z,95.53
2022-11-19T00:41:58.956Z,95.91
2022-11-19T00:42:58.958Z,95.22
2022-11-19T00:43:58.925Z,95.22
2022-11-19T00:44:58.920Z,95.22
2022-11-19T00:45:58.921Z,95.01
2022-11-19T00:46:58.941Z,95.53
2022-11-19T00:47:58.883Z,96.17
2022-11-19T00:48:58.875Z,95.95
2022-11-19T00:49:58.874Z,96.06
2022-11-19T00:50:58.869Z,95.95
2022-11-19T00:51:58.838Z,96.48
2022-11-19T00:52:58.826Z,96.44
2022-11-19T00:53:58.832Z,96.27
2022-11-19T00:54:58.810Z,96.02
2022-11-19T00:55:58.812Z,96.23
2022-11-19T00:56:58.806Z,96.23
2022-11-19T00:57:58.789Z,96.86
2022-11-19T00:58:58.764Z,96.75
2022-11-19T00:59:58.765Z,95.95
2022-11-19T01:00:58.812Z,96.02
2022-11-19T01:01:58.726Z,96.37
2022-11-19T01:02:58.738Z,96.23
2022-11-19T01:03:58.746Z,95.91
2022-11-19T01:04:58.699Z,95.18
2022-11-19T01:05:58.699Z,95.60
2022-11-19T01:06:58.752Z,95.49
2022-11-19T01:07:58.660Z,95.43
2022-11-19T01:08:58.672Z,95.49
2022-11-19T01:09:58.634Z,94.90
2022-11-19T01:10:58.630Z,95.22
2022-11-19T01:11:58.631Z,95.01
2022-11-19T01:12:58.608Z,95.01
2022-11-19T01:13:58.618Z,95.01
2022-11-19T01:14:58.587Z,95.32
2022-11-19T01:15:58.592Z,95.11
2022-11-19T01:16:58.565Z,95.95
2022-11-19T01:17:58.554Z,96.48
2022-11-19T01:18:58.554Z,96.37
2022-11-19T01:19:58.583Z,96.59
2022-11-19T01:20:58.520Z,96.12
2022-11-19T01:21:58.542Z,96.37
2022-11-19T01:22:58.504Z,96.33
2022-11-19T01:23:58.482Z,96.55
2022-11-19T01:24:58.478Z,96.12
2022-11-19T01:25:58.461Z,96.23
2022-11-19T01:26:58.469Z,96.27
2022-11-19T01:27:58.462Z,96.27
2022-11-19T01:28:58.437Z,95.81
2022-11-19T01:29:58.432Z,96.06
2022-11-19T01:30:58.409Z,96.23
2022-11-19T01:31:58.410Z,96.27
2022-11-19T01:32:58.394Z,95.64
2022-11-19T01:33:58.385Z,96.06
2022-11-19T01:34:58.364Z,96.27
2022-11-19T01:35:58.376Z,95.85
2022-11-19T01:36:58.362Z,96.06
2022-11-19T01:37:58.349Z,96.06
2022-11-19T01:38:58.373Z,95.85
2022-11-19T01:39:58.328Z,96.17
2022-11-19T01:40:58.303Z,96.17
2022-11-19T01:41:58.304Z,95.32
2022-11-19T01:42:58.285Z,95.64
2022-11-19T01:43:58.258Z,95.75
2022-11-19T01:44:58.267Z,95.53
2022-11-19T01:45:58.246Z,95.07
2022-11-19T01:46:58.260Z,95.75
2022-11-19T01:47:58.242Z,95.43
2022-11-19T01:48:58.213Z,95.75
2022-11-19T01:49:58.203Z,96.06
2022-11-19T01:50:58.215Z,95.53
2022-11-19T01:51:58.179Z,95.43
2022-11-19T01:52:58.191Z,94.69
2022-11-19T01:53:58.172Z,95.22
2022-11-19T01:54:58.157Z,95.11
2022-11-19T01:55:58.146Z,95.11
2022-11-19T01:56:58.129Z,94.63
2022-11-19T01:57:58.132Z,94.84
2022-11-19T01:58:58.108Z,94.53
2022-11-19T01:59:58.094Z,95.05
2022-11-19T02:00:58.123Z,94.53
2022-11-19T02:01:58.080Z,94.63
2022-11-19T02:02:58.083Z,94.63
2022-11-19T02:03:58.063Z,94.42
2022-11-19T02:04:58.037Z,94.78
2022-11-19T02:05:58.022Z,94.95
2022-11-19T02:06:58.146Z,95.51
2022-11-19T02:07:58.004Z,94.46
2022-11-19T02:08:57.997Z,94.67
2022-11-19T02:09:58.001Z,95.15
2022-11-19T02:10:57.975Z,95.20
2022-11-19T02:11:57.957Z,95.20
2022-11-19T02:12:57.965Z,95.15
2022-11-19T02:13:57.934Z,95.20
2022-11-19T02:14:57.929Z,94.61
2022-11-19T02:15:57.937Z,94.46
2022-11-19T02:16:57.927Z,95.05
2022-11-19T02:17:57.890Z,95.51
2022-11-19T02:18:57.885Z,95.20
2022-11-19T02:19:57.885Z,95.09
2022-11-19T02:20:57.882Z,94.99
2022-11-19T02:21:57.844Z,94.99
2022-11-19T02:22:57.849Z,94.99
2022-11-19T02:23:57.839Z,94.99
2022-11-19T02:24:57.837Z,95.20
2022-11-19T02:25:57.818Z,95.09
2022-11-19T02:26:57.794Z,95.20
2022-11-19T02:27:57.804Z,94.89
2022-11-19T02:28:57.773Z,94.15
2022-11-19T02:29:57.760Z,94.61
2022-11-19T02:30:57.796Z,94.08
2022-11-19T02:31:57.736Z,93.77
2022-11-19T02:32:57.749Z,93.66
2022-11-19T02:33:57.714Z,94.08
2022-11-19T02:34:57.706Z,93.91
2022-11-19T02:35:57.712Z,93.80
2022-11-19T02:36:57.687Z,93.28
2022-11-19T02:37:57.675Z,93.38
2022-11-19T02:38:57.687Z,93.49
2022-11-19T02:39:57.649Z,93.28
2022-11-19T02:40:57.640Z,93.64
2022-11-19T02:41:57.785Z,93.22
2022-11-19T02:42:57.641Z,93.47
2022-11-19T02:43:57.603Z,93.57
2022-11-19T02:44:57.607Z,93.37
2022-11-19T02:45:57.584Z,93.26
2022-11-19T02:46:57.598Z,93.09
2022-11-19T02:47:57.557Z,93.51
2022-11-19T02:48:57.555Z,93.73
2022-11-19T02:49:57.552Z,93.51
2022-11-19T02:50:57.565Z,93.41
2022-11-19T02:51:57.516Z,93.93
2022-11-19T02:52:57.539Z,93.93
2022-11-19T02:53:57.501Z,93.93
2022-11-19T02:54:57.510Z,94.19
2022-11-19T02:55:57.472Z,93.87
2022-11-19T02:56:57.488Z,93.55
2022-11-19T02:57:57.564Z,93.87
2022-11-19T02:58:57.481Z,93.66
2022-11-19T02:59:57.442Z,93.77
2022-11-19T03:00:57.498Z,94.02
2022-11-19T03:01:57.412Z,94.19
2022-11-19T03:02:57.420Z,93.77
2022-11-19T03:03:57.408Z,93.98
2022-11-19T03:04:57.379Z,93.66
2022-11-19T03:05:57.366Z,93.45
2022-11-19T03:06:57.379Z,93.66
2022-11-19T03:07:57.344Z,93.38
2022-11-19T03:08:57.355Z,93.34
2022-11-19T03:09:57.319Z,93.07
2022-11-19T03:10:57.315Z,93.07
2022-11-19T03:11:57.312Z,92.96
2022-11-19T03:12:57.296Z,92.86
2022-11-19T03:13:57.316Z,92.96
2022-11-19T03:14:57.268Z,92.69
2022-11-19T03:15:57.261Z,91.74
2022-11-19T03:16:57.251Z,92.47
2022-11-19T03:17:57.239Z,92.10
2022-11-19T03:18:57.264Z,91.78
2022-11-19T03:19:57.231Z,92.41
2022-11-19T03:20:57.222Z,92.20
2022-11-19T03:21:57.186Z,92.62
2022-11-19T03:22:57.181Z,92.83
2022-11-19T03:23:57.185Z,93.15
2022-11-19T03:24:57.167Z,92.83
2022-11-19T03:25:57.165Z,93.15
2022-11-19T03:26:57.158Z,93.15
2022-11-19T03:27:57.122Z,93.68
2022-11-19T03:28:57.130Z,93.57
2022-11-19T03:29:57.152Z,93.79
2022-11-19T03:30:57.091Z,93.15
2022-11-19T03:31:57.086Z,93.26
2022-11-19T03:32:57.071Z,92.94
2022-11-19T03:33:57.063Z,92.88
2022-11-19T03:34:57.085Z,92.77
2022-11-19T03:35:57.062Z,93.19
2022-11-19T03:36:57.050Z,92.13
2022-11-19T03:37:57.022Z,91.82
2022-11-19T03:38:57.002Z,91.93
2022-11-19T03:39:57.024Z,92.13
2022-11-19T03:40:56.997Z,91.75
2022-11-19T03:41:56.975Z,92.49
2022-11-19T03:42:56.965Z,92.29
2022-11-19T03:43:56.952Z,91.86
2022-11-19T03:44:56.938Z,92.49
2022-11-19T03:45:56.981Z,92.71
2022-11-19T03:46:56.938Z,92.49
2022-11-19T03:47:56.910Z,92.75
2022-11-19T03:48:56.900Z,92.49
2022-11-19T03:49:56.906Z,92.60
2022-11-19T03:50:56.870Z,91.79
2022-11-19T03:51:56.901Z,92.60
2022-11-19T03:53:01.271Z,92.54
2022-11-19T03:53:57.850Z,92.49
2022-11-19T03:54:56.831Z,92.54
2022-11-19T03:55:56.829Z,92.54
2022-11-19T03:56:56.836Z,92.64
2022-11-19T03:57:56.799Z,92.11
2022-11-19T03:58:56.801Z,92.11
2022-11-19T03:59:56.806Z,92.26
2022-11-19T04:00:56.767Z,92.32
2022-11-19T04:01:56.861Z,92.68
2022-11-19T04:02:56.747Z,92.58
2022-11-19T04:03:56.736Z,92.26
2022-11-19T04:04:56.720Z,91.90
2022-11-19T04:05:56.745Z,93.00
2022-11-19T04:06:56.754Z,93.28
2022-11-19T04:07:56.704Z,93.11
2022-11-19T04:08:56.679Z,93.11
2022-11-19T04:09:56.696Z,93.11
2022-11-19T04:10:56.657Z,92.90
2022-11-19T04:11:56.669Z,93.21
2022-11-19T04:12:56.634Z,92.79
2022-11-19T04:13:56.630Z,91.83
2022-11-19T04:14:56.631Z,92.26
2022-11-19T04:15:56.614Z,92.36
2022-11-19T04:16:56.589Z,92.36
2022-11-19T04:17:56.623Z,92.41
2022-11-19T04:18:56.566Z,92.30
2022-11-19T04:19:56.591Z,92.30
2022-11-19T04:20:56.566Z,92.19
2022-11-19T04:21:56.547Z,92.51
2022-11-19T04:22:56.551Z,91.98
2022-11-19T04:23:56.526Z,92.51
2022-11-19T04:24:56.509Z,92.41
2022-11-19T04:25:56.502Z,92.72
2022-11-19T04:26:56.479Z,92.19
2022-11-19T04:27:56.521Z,92.19
2022-11-19T04:28:56.470Z,92.34
2022-11-19T04:29:56.472Z,91.81
2022-11-19T04:30:56.439Z,91.92
2022-11-19T04:31:56.457Z,91.60
2022-11-19T04:32:56.416Z,92.66
2022-11-19T04:33:56.447Z,92.55
2022-11-19T04:34:56.394Z,92.34
2022-11-19T04:35:56.387Z,92.02
2022-11-19T04:36:56.393Z,92.13
2022-11-19T04:37:56.367Z,92.77
2022-11-19T04:38:56.370Z,92.77
2022-11-19T04:39:56.343Z,93.51
2022-11-19T04:40:56.330Z,93.30
2022-11-19T04:41:56.322Z,92.66
2022-11-19T04:42:56.308Z,92.24
2022-11-19T04:43:56.322Z,92.34
2022-11-19T04:44:56.321Z,92.28
2022-11-19T04:45:56.285Z,92.49
2022-11-19T04:46:56.294Z,91.92
2022-11-19T04:47:56.255Z,92.28
2022-11-19T04:48:56.286Z,92.24
2022-11-19T04:49:56.272Z,92.28
2022-11-19T04:50:56.238Z,92.17
2022-11-19T04:51:56.225Z,92.24
2022-11-19T04:52:56.200Z,92.60
2022-11-19T04:53:56.217Z,92.60
2022-11-19T04:54:56.196Z,92.38
2022-11-19T04:55:56.174Z,92.28
2022-11-19T04:56:56.160Z,93.13
2022-11-19T04:57:56.157Z,92.38
2022-11-19T04:58:56.130Z,91.96
2022-11-19T04:59:56.146Z,92.81
2022-11-19T05:00:56.113Z,92.49
2022-11-19T05:01:56.174Z,92.07
2022-11-19T05:02:56.111Z,92.43
2022-11-19T05:03:56.177Z,91.68
2022-11-19T05:04:56.072Z,91.25
2022-11-19T05:05:56.095Z,92.00
2022-11-19T05:06:56.112Z,92.85
2022-11-19T05:07:56.046Z,92.21
2022-11-19T05:08:56.031Z,92.53
2022-11-19T05:09:56.027Z,91.89
2022-11-19T05:10:56.020Z,92.43
2022-11-19T05:11:55.996Z,92.53
2022-11-19T05:12:56.006Z,91.51
2022-11-19T05:13:56.000Z,91.08
2022-11-19T05:14:55.960Z,90.23
2022-11-19T05:15:55.956Z,90.49
2022-11-19T05:16:55.940Z,90.81
2022-11-19T05:17:55.939Z,91.30
2022-11-19T05:18:55.934Z,91.13
2022-11-19T05:19:55.919Z,91.55
2022-11-19T05:20:55.895Z,91.41
2022-11-19T05:21:55.907Z,92.36
2022-11-19T05:22:55.883Z,92.68
2022-11-19T05:23:55.890Z,92.79
2022-11-19T05:24:55.858Z,92.47
2022-11-19T05:25:55.863Z,92.57
2022-11-19T05:26:55.848Z,92.57
2022-11-19T05:27:55.833Z,92.36
2022-11-19T05:28:55.828Z,92.68
2022-11-19T05:29:55.823Z,92.36
2022-11-19T05:30:55.786Z,92.68
2022-11-19T05:31:55.784Z,92.68
2022-11-19T05:32:55.764Z,92.14
2022-11-19T05:33:55.764Z,92.36
2022-11-19T05:34:55.780Z,92.72
2022-11-19T05:35:55.742Z,92.36
2022-11-19T05:36:55.734Z,92.68
2022-11-19T05:37:55.741Z,92.89
2022-11-19T05:38:55.810Z,92.89
2022-11-19T05:39:55.694Z,92.25
2022-11-19T05:40:55.715Z,92.04
2022-11-19T05:41:55.680Z,92.25
2022-11-19T05:42:55.664Z,93.25
2022-11-19T05:43:55.669Z,92.19
2022-11-19T05:44:55.639Z,92.61
2022-11-19T05:45:55.649Z,92.83
2022-11-19T05:46:55.626Z,91.87
2022-11-19T05:47:55.609Z,91.77
2022-11-19T05:48:55.599Z,92.19
2022-11-19T05:49:55.612Z,91.77
2022-11-19T05:50:55.570Z,92.72
2022-11-19T05:51:55.573Z,92.40
2022-11-19T05:52:55.570Z,92.30
2022-11-19T05:53:55.622Z,92.72
2022-11-19T05:54:55.533Z,92.72
2022-11-19T05:55:55.528Z,92.72
2022-11-19T05:56:55.634Z,92.30
2022-11-19T05:57:55.533Z,91.87
2022-11-19T05:58:55.513Z,91.87
2022-11-19T05:59:55.490Z,91.38
2022-11-19T06:00:55.471Z,91.80
2022-11-19T06:01:55.464Z,91.97
2022-11-19T06:02:55.477Z,91.77
2022-11-19T06:03:55.453Z,91.91
2022-11-19T06:04:55.458Z,91.70
2022-11-19T06:05:55.466Z,91.10
2022-11-19T06:06:55.567Z,90.95
2022-11-19T06:07:55.406Z,91.59
2022-11-19T06:08:55.399Z,91.80
2022-11-19T06:09:55.392Z,91.59
2022-11-19T06:10:55.354Z,91.91
2022-11-19T06:11:55.371Z,92.76
2022-11-19T06:12:55.342Z,92.76
2022-11-19T06:13:55.333Z,92.76
2022-11-19T06:14:55.314Z,92.87
2022-11-19T06:15:55.333Z,93.99
2022-11-19T06:16:55.291Z,95.55
2022-11-19T06:17:55.399Z,95.97
2022-11-19T06:18:55.389Z,95.44
2022-11-19T06:19:55.327Z,94.91
2022-11-19T06:20:55.358Z,94.10
2022-11-19T06:21:55.277Z,94.53
2022-11-19T06:22:55.227Z,93.36
2022-11-19T06:23:55.235Z,93.57
2022-11-19T06:24:55.239Z,93.57
2022-11-19T06:25:55.239Z,93.36
2022-11-19T06:26:55.200Z,93.04
2022-11-19T06:27:55.196Z,93.40
2022-11-19T06:28:55.162Z,93.46
2022-11-19T06:29:56.482Z,93.72
2022-11-19T06:30:55.162Z,93.62
2022-11-19T06:31:55.163Z,92.87
2022-11-19T06:32:55.119Z,92.87
2022-11-19T06:33:55.119Z,92.87
2022-11-19T06:34:55.128Z,92.33
2022-11-19T06:35:55.110Z,92.87
2022-11-19T06:36:55.128Z,92.59
2022-11-19T06:37:55.088Z,92.59
2022-11-19T06:38:55.053Z,92.70
2022-11-19T06:39:55.072Z,92.59
2022-11-19T06:40:55.032Z,92.70
2022-11-19T06:41:55.068Z,92.27
2022-11-19T06:42:55.013Z,91.85
2022-11-19T06:43:55.014Z,92.59
2022-11-19T06:44:54.998Z,92.59
2022-11-19T06:45:54.987Z,92.70
2022-11-19T06:46:55.452Z,92.49
2022-11-19T06:47:54.964Z,92.87
2022-11-19T06:48:55.892Z,93.62
2022-11-19T06:49:54.940Z,93.40
2022-11-19T06:50:54.925Z,93.62
2022-11-19T06:51:54.918Z,93.40
2022-11-19T06:52:54.909Z,93.62
2022-11-19T06:53:54.921Z,93.51
2022-11-19T06:54:54.905Z,93.57
2022-11-19T06:55:54.880Z,93.99
2022-11-19T06:56:54.879Z,94.32
2022-11-19T06:57:55.038Z,94.21
2022-11-19T06:58:55.384Z,94.10
2022-11-19T06:59:55.458Z,93.57
2022-11-19T07:00:55.441Z,93.96
2022-11-19T07:01:54.854Z,94.10
2022-11-19T07:02:54.830Z,94.27
2022-11-19T07:03:54.791Z,94.17
2022-11-19T07:04:54.775Z,94.06
2022-11-19T07:05:54.770Z,94.06
2022-11-19T07:06:54.922Z,93.63
2022-11-19T07:07:58.828Z,93.85
2022-11-19T07:08:55.758Z,93.96
2022-11-19T07:09:54.721Z,93.96
2022-11-19T07:10:54.714Z,94.27
2022-11-19T07:11:54.701Z,94.17
2022-11-19T07:12:54.700Z,94.06
2022-11-19T07:13:54.720Z,94.06
2022-11-19T07:14:57.464Z,94.17
2022-11-19T07:15:55.669Z,93.85
2022-11-19T07:16:54.650Z,93.85
2022-11-19T07:17:54.667Z,93.80
2022-11-19T07:18:54.638Z,93.70
2022-11-19T07:19:54.619Z,94.55
2022-11-19T07:20:54.622Z,94.34
2022-11-19T07:21:54.593Z,94.02
2022-11-19T07:22:58.888Z,94.12
2022-11-19T07:23:54.583Z,94.02
2022-11-19T07:24:54.581Z,93.91
2022-11-19T07:25:54.554Z,94.34
2022-11-19T07:26:54.540Z,93.91
2022-11-19T07:27:54.560Z,94.02
2022-11-19T07:28:54.517Z,93.80
2022-11-19T07:29:54.547Z,93.91
2022-11-19T07:30:54.508Z,93.87
2022-11-19T07:31:54.511Z,93.80
2022-11-19T07:32:54.474Z,94.09
2022-11-19T07:33:54.466Z,94.82
2022-11-19T07:34:54.508Z,95.04
2022-11-19T07:35:54.462Z,95.04
2022-11-19T07:36:54.429Z,94.78
2022-11-19T07:37:54.423Z,95.31
2022-11-19T07:38:54.427Z,95.42
2022-11-19T07:39:54.400Z,94.95
2022-11-19T07:40:54.403Z,95.42
2022-11-19T07:41:54.395Z,95.17
2022-11-19T07:42:54.367Z,95.38
2022-11-19T07:43:54.391Z,95.38
2022-11-19T07:44:55.132Z,95.80
2022-11-19T07:45:54.351Z,95.87
2022-11-19T07:46:54.418Z,95.38
2022-11-19T07:47:54.332Z,95.02
2022-11-19T07:48:54.317Z,95.12
2022-11-19T07:49:54.322Z,94.91
2022-11-19T07:50:56.552Z,95.44
2022-11-19T07:51:54.266Z,95.23
2022-11-19T07:52:54.263Z,95.23
2022-11-19T07:53:54.246Z,95.34
2022-11-19T07:54:54.247Z,94.70
2022-11-19T07:55:54.246Z,94.70
2022-11-19T07:56:54.241Z,94.70
2022-11-19T07:57:54.202Z,94.49
2022-11-19T07:58:54.194Z,94.70
2022-11-19T07:59:54.177Z,95.02
2022-11-19T08:00:54.211Z,94.91
2022-11-19T08:01:54.194Z,95.23
2022-11-19T08:02:54.151Z,95.12
2022-11-19T08:03:56.627Z,95.12
2022-11-19T08:04:54.130Z,94.91
2022-11-19T08:05:54.114Z,94.81
2022-11-19T08:06:54.121Z,94.59
2022-11-19T08:07:54.118Z,95.02
2022-11-19T08:08:54.091Z,94.49
2022-11-19T08:09:54.073Z,94.38
2022-11-19T08:10:54.067Z,94.49
2022-11-19T08:11:54.050Z,94.45
2022-11-19T08:12:54.076Z,94.59
2022-11-19T08:13:54.030Z,94.49
2022-11-19T08:14:54.022Z,94.70
2022-11-19T08:15:54.010Z,94.38
2022-11-19T08:16:54.017Z,93.96
2022-11-19T08:17:54.007Z,94.27
2022-11-19T08:18:53.992Z,93.96
2022-11-19T08:19:53.984Z,94.06
2022-11-19T08:20:53.971Z,94.06
2022-11-19T08:21:53.957Z,93.43
2022-11-19T08:22:53.937Z,93.74
2022-11-19T08:23:53.925Z,93.74
2022-11-19T08:24:53.948Z,93.85
2022-11-19T08:25:53.899Z,94.06
2022-11-19T08:26:53.933Z,93.85
2022-11-19T08:27:53.879Z,93.64
2022-11-19T08:28:53.874Z,94.06
2022-11-19T08:29:53.886Z,93.85
2022-11-19T08:30:53.865Z,94.17
2022-11-19T08:31:53.836Z,93.64
2022-11-19T08:32:53.828Z,93.85
2022-11-19T08:33:53.834Z,93.96
2022-11-19T08:34:53.826Z,93.21
2022-11-19T08:35:53.790Z,93.32
2022-11-19T08:36:53.816Z,93.32
2022-11-19T08:37:53.785Z,94.10
2022-11-19T08:38:53.764Z,93.64
2022-11-19T08:39:53.762Z,93.96
2022-11-19T08:40:53.745Z,94.49
2022-11-19T08:41:53.746Z,94.91
2022-11-19T08:42:53.759Z,94.81
2022-11-19T08:43:53.710Z,94.70
2022-11-19T08:44:53.700Z,95.02
2022-11-19T08:45:53.680Z,94.91
2022-11-19T08:46:53.673Z,95.12
2022-11-19T08:47:53.677Z,94.70
2022-11-19T08:48:53.689Z,94.59
2022-11-19T08:49:53.652Z,95.02
2022-11-19T08:50:53.629Z,94.27
2022-11-19T08:51:53.634Z,94.76
2022-11-19T08:52:53.613Z,94.81
2022-11-19T08:53:53.594Z,95.08
2022-11-19T08:54:53.609Z,95.40
2022-11-19T08:55:53.577Z,95.18
2022-11-19T08:56:53.602Z,95.25
2022-11-19T08:57:53.614Z,95.40
2022-11-19T08:58:54.722Z,95.08
2022-11-19T08:59:53.537Z,95.36
2022-11-19T09:00:53.604Z,95.29
2022-11-19T09:01:53.509Z,95.14
2022-11-19T09:02:53.510Z,95.36
2022-11-19T09:03:53.506Z,95.36
2022-11-19T09:04:53.478Z,95.04
2022-11-19T09:05:53.503Z,94.72
2022-11-19T09:06:53.478Z,95.00
2022-11-19T09:07:53.441Z,94.89
2022-11-19T09:08:53.437Z,94.82
2022-11-19T09:09:53.441Z,94.78
2022-11-19T09:10:53.430Z,94.57
2022-11-19T09:11:53.397Z,94.68
2022-11-19T09:12:53.418Z,95.00
2022-11-19T09:13:53.376Z,94.78
2022-11-19T09:14:53.401Z,94.57
2022-11-19T09:15:53.366Z,95.10
2022-11-19T09:16:53.367Z,95.00
2022-11-19T09:17:53.356Z,94.78
2022-11-19T09:18:53.329Z,95.63
2022-11-19T09:19:53.308Z,95.59
2022-11-19T09:20:53.305Z,95.63
2022-11-19T09:21:53.337Z,95.73
2022-11-19T09:22:53.302Z,96.01
2022-11-19T09:23:53.265Z,96.01
2022-11-19T09:24:53.266Z,95.17
2022-11-19T09:25:53.252Z,95.06
2022-11-19T09:26:53.798Z,94.85
2022-11-19T09:27:53.248Z,94.85
2022-11-19T09:28:53.228Z,94.95
2022-11-19T09:29:53.201Z,94.53
2022-11-19T09:30:53.201Z,95.17
2022-11-19T09:31:53.200Z,94.95
2022-11-19T09:32:53.182Z,94.85
2022-11-19T09:33:53.159Z,94.85
2022-11-19T09:34:53.160Z,94.53
2022-11-19T09:35:53.143Z,94.95
2022-11-19T09:36:53.153Z,95.17
2022-11-19T09:37:53.157Z,95.17
2022-11-19T09:38:53.110Z,95.17
2022-11-19T09:39:53.096Z,95.12
2022-11-19T09:40:53.123Z,94.81
2022-11-19T09:41:53.075Z,95.33
2022-11-19T09:42:53.087Z,95.33
2022-11-19T09:43:53.056Z,95.44
2022-11-19T09:44:53.090Z,95.50
2022-11-19T09:45:53.041Z,95.50
2022-11-19T09:46:53.028Z,95.39
2022-11-19T09:47:53.048Z,95.39
2022-11-19T09:48:53.002Z,95.29
2022-11-19T09:49:52.989Z,95.29
2022-11-19T09:50:53.592Z,95.67
2022-11-19T09:51:52.961Z,94.45
2022-11-19T09:52:52.969Z,95.29
2022-11-19T09:53:52.978Z,94.97
2022-11-19T09:54:52.937Z,94.65
2022-11-19T09:55:52.922Z,95.56
2022-11-19T09:56:52.913Z,95.61
2022-11-19T09:57:52.931Z,95.88
2022-11-19T09:58:52.900Z,95.35
2022-11-19T09:59:52.878Z,94.93
2022-11-19T10:00:52.873Z,94.61
2022-11-19T10:01:52.858Z,93.45
2022-11-19T10:02:52.883Z,93.55
2022-11-19T10:03:52.831Z,93.45
2022-11-19T10:04:52.856Z,93.73
2022-11-19T10:05:52.807Z,93.41
2022-11-19T10:06:52.820Z,93.09
2022-11-19T10:07:52.787Z,92.99
2022-11-19T10:08:52.803Z,93.05
2022-11-19T10:09:53.002Z,92.83
2022-11-19T10:10:52.766Z,92.94
2022-11-19T10:11:52.768Z,92.94
2022-11-19T10:12:52.743Z,92.83
2022-11-19T10:13:52.728Z,92.69
2022-11-19T10:14:52.717Z,92.90
2022-11-19T10:15:52.721Z,92.79
2022-11-19T10:16:52.704Z,92.79
2022-11-19T10:17:52.686Z,93.54
2022-11-19T10:18:52.761Z,93.64
2022-11-19T10:19:52.654Z,93.49
2022-11-19T10:20:52.674Z,92.76
2022-11-19T10:21:52.636Z,92.76
2022-11-19T10:22:57.161Z,92.76
2022-11-19T10:23:53.640Z,92.12
2022-11-19T10:24:52.605Z,92.76
2022-11-19T10:25:52.609Z,92.82
2022-11-19T10:26:52.604Z,92.96
2022-11-19T10:27:52.585Z,92.08
2022-11-19T10:28:52.582Z,92.29
2022-11-19T10:29:52.558Z,92.29
2022-11-19T10:30:52.542Z,91.02
2022-11-19T10:31:52.526Z,91.13
2022-11-19T10:32:52.522Z,91.86
2022-11-19T10:33:52.523Z,91.55
2022-11-19T10:34:52.505Z,91.30
2022-11-19T10:35:52.491Z,90.77
2022-11-19T10:36:52.517Z,91.09
2022-11-19T10:37:52.457Z,91.78
2022-11-19T10:38:52.473Z,90.62
2022-11-19T10:39:52.442Z,90.52
2022-11-19T10:40:52.453Z,90.10
2022-11-19T10:41:52.492Z,90.10
2022-11-19T10:42:52.414Z,89.99
2022-11-19T10:43:52.393Z,88.16
2022-11-19T10:44:52.440Z,87.32
2022-11-19T10:45:52.458Z,87.63
2022-11-19T10:46:52.384Z,87.32
2022-11-19T10:47:52.436Z,88.23
2022-11-19T10:48:52.342Z,88.86
2022-11-19T10:49:52.328Z,93.41
2022-11-19T10:50:52.389Z,94.94
2022-11-19T10:51:52.322Z,92.67
2022-11-19T10:52:52.302Z,89.72
2022-11-19T10:53:52.284Z,87.24
2022-11-19T10:54:52.279Z,86.88
2022-11-19T10:55:54.665Z,86.61
2022-11-19T10:56:52.261Z,86.19
2022-11-19T10:57:52.254Z,87.30
2022-11-19T10:58:52.248Z,87.41
2022-11-19T10:59:52.221Z,88.25
2022-11-19T11:00:52.258Z,89.62
2022-11-19T11:01:52.203Z,89.47
2022-11-19T11:02:52.190Z,89.43
2022-11-19T11:03:52.199Z,86.63
2022-11-19T11:04:52.203Z,85.58
2022-11-19T11:05:52.163Z,85.31
2022-11-19T11:06:52.147Z,85.73
2022-11-19T11:07:52.189Z,85.62
2022-11-19T11:08:52.145Z,85.06
2022-11-19T11:09:52.131Z,86.11
2022-11-19T11:10:52.125Z,86.43
2022-11-19T11:11:52.095Z,87.65
2022-11-19T11:12:52.098Z,87.96
2022-11-19T11:13:52.081Z,89.07
2022-11-19T11:14:52.443Z,89.46
2022-11-19T11:15:52.067Z,89.04
2022-11-19T11:16:52.036Z,89.31
2022-11-19T11:17:52.040Z,89.42
2022-11-19T11:18:52.021Z,89.00
2022-11-19T11:19:51.998Z,87.95
2022-11-19T11:20:52.013Z,85.95
2022-11-19T11:21:51.981Z,84.69
2022-11-19T11:22:51.971Z,85.15
2022-11-19T11:23:51.968Z,86.41
2022-11-19T11:24:51.964Z,86.06
2022-11-19T11:25:51.951Z,87.32
2022-11-19T11:26:51.941Z,87.95
2022-11-19T11:27:51.925Z,87.17
2022-11-19T11:28:51.908Z,85.81
2022-11-19T11:29:51.908Z,86.23
2022-11-19T11:30:51.992Z,85.81
2022-11-19T11:31:51.881Z,85.81
2022-11-19T11:32:51.858Z,85.08
2022-11-19T11:33:51.841Z,86.12
2022-11-19T11:34:52.655Z,86.02
2022-11-19T11:35:51.820Z,85.28
2022-11-19T11:36:51.833Z,84.86
2022-11-19T11:37:51.820Z,84.27
2022-11-19T11:38:51.813Z,84.55
2022-11-19T11:39:51.813Z,85.25
2022-11-19T11:40:59.951Z,86.08
2022-11-19T11:42:05.431Z,83.88
2022-11-19T11:42:52.751Z,82.42
2022-11-19T11:43:51.791Z,82.03
2022-11-19T11:44:51.728Z,82.35
2022-11-19T11:45:51.729Z,83.36
2022-11-19T11:46:51.706Z,85.14
2022-11-19T11:47:51.690Z,85.52
2022-11-19T11:48:51.682Z,84.47
2022-11-19T11:49:51.699Z,85.00
2022-11-19T11:50:51.661Z,85.90
2022-11-19T11:51:51.649Z,86.00
2022-11-19T11:52:51.641Z,84.75
2022-11-19T11:53:51.626Z,84.01
2022-11-19T11:54:51.634Z,82.13
2022-11-19T11:55:51.621Z,82.86
2022-11-19T11:56:51.595Z,84.85
2022-11-19T11:57:51.581Z,83.91
2022-11-19T11:58:51.591Z,84.22
2022-11-19T11:59:51.578Z,82.86
2022-11-19T12:00:51.559Z,83.59
2022-11-19T12:01:51.557Z,82.23
2022-11-19T12:02:51.542Z,81.96
2022-11-19T12:03:55.297Z,82.27
2022-11-19T12:04:51.523Z,82.79
2022-11-19T12:05:51.498Z,84.01
2022-11-19T12:06:51.484Z,85.06
2022-11-19T12:07:51.503Z,84.64
2022-11-19T12:08:51.462Z,85.24
2022-11-19T12:09:51.481Z,85.44
2022-11-19T12:10:51.434Z,85.24
2022-11-19T12:11:51.601Z,83.66
2022-11-19T12:12:51.461Z,83.94
2022-11-19T12:13:51.447Z,84.36
2022-11-19T12:14:51.584Z,84.25
2022-11-19T12:15:51.411Z,83.21
2022-11-19T12:16:51.456Z,83.31
2022-11-19T12:17:51.470Z,83.83
2022-11-19T12:18:51.364Z,85.09
2022-11-19T12:19:51.474Z,84.25
2022-11-19T12:20:51.342Z,83.83
2022-11-19T12:21:51.356Z,82.75
2022-11-19T12:22:51.333Z,82.33
2022-11-19T12:23:51.319Z,82.06
2022-11-19T12:24:51.283Z,81.63
2022-11-19T12:25:51.295Z,81.85
2022-11-19T12:26:51.277Z,82.06
2022-11-19T12:27:51.260Z,82.43
2022-11-19T12:28:51.236Z,82.37
2022-11-19T12:29:51.309Z,81.74
2022-11-19T12:30:51.232Z,78.53
2022-11-19T12:31:51.207Z,79.58
2022-11-19T12:32:51.199Z,79.16
2022-11-19T12:33:51.298Z,80.42
2022-11-19T12:34:51.187Z,82.09
2022-11-19T12:35:51.170Z,82.20
2022-11-19T12:36:51.146Z,81.99
2022-11-19T12:37:51.166Z,81.57
2022-11-19T12:38:51.133Z,79.90
2022-11-19T12:39:51.146Z,79.47
2022-11-19T12:40:51.106Z,79.37
2022-11-19T12:41:51.097Z,79.37
2022-11-19T12:42:51.080Z,79.16
2022-11-19T12:43:51.096Z,78.05
2022-11-19T12:44:51.094Z,76.93
2022-11-19T12:45:51.059Z,78.11
2022-11-19T12:46:51.034Z,78.22
2022-11-19T12:47:51.027Z,79.52
2022-11-19T12:48:51.033Z,80.42
2022-11-19T12:49:51.028Z,80.67
2022-11-19T12:50:51.021Z,80.25
2022-11-19T12:51:51.008Z,80.35
2022-11-19T12:52:51.103Z,81.30